createdAt,value
2023-04-08T00:01:22.714Z,18.15
2023-04-08T00:03:49.232Z,20.60
2023-04-08T00:06:16.221Z,19.10
2023-04-08T00:08:42.529Z,19.33
2023-04-08T00:11:08.846Z,18.90
2023-04-08T00:13:35.306Z,20.63
2023-04-08T00:16:01.832Z,18.50
2023-04-08T00:18:28.231Z,19.83
2023-04-08T00:20:54.726Z,17.25
2023-04-08T00:23:21.474Z,18.88
2023-04-08T00:25:47.973Z,18.77
2023-04-08T00:28:14.271Z,18.13
2023-04-08T00:30:40.652Z,19.00
2023-04-08T00:33:06.990Z,19.67
2023-04-08T00:35:33.357Z,19.15
2023-04-08T00:37:59.666Z,18.10
2023-04-08T00:40:25.971Z,21.30
2023-04-08T00:42:52.265Z,19.38
2023-04-08T00:45:18.554Z,19.70
2023-04-08T00:47:44.962Z,19.58
2023-04-08T00:50:11.394Z,17.60
2023-04-08T00:52:37.767Z,19.07
2023-04-08T00:55:04.299Z,18.48
2023-04-08T00:57:30.640Z,18.35
2023-04-08T00:59:56.991Z,18.90
2023-04-08T01:02:29.948Z,20.05
2023-04-08T01:05:02.003Z,18.35
2023-04-08T01:07:31.123Z,18.67
2023-04-08T01:10:01.999Z,19.67
2023-04-08T01:12:32.970Z,18.83
2023-04-08T01:15:01.708Z,19.48
2023-04-08T01:17:28.991Z,18.25
2023-04-08T01:19:57.094Z,19.67
2023-04-08T01:22:29.785Z,18.63
2023-04-08T01:25:01.215Z,19.45
2023-04-08T01:27:28.546Z,18.48
2023-04-08T01:29:55.791Z,18.75
2023-04-08T01:32:22.414Z,18.50
2023-04-08T01:34:49.068Z,19.08
2023-04-08T01:37:15.869Z,19.13
2023-04-08T01:39:42.691Z,21.73
2023-04-08T01:42:09.616Z,19.50
2023-04-08T01:44:36.369Z,19.70
2023-04-08T01:47:03.490Z,19.42
2023-04-08T01:49:30.649Z,19.80
2023-04-08T01:51:57.614Z,21.67
2023-04-08T01:54:23.941Z,22.15
2023-04-08T01:56:51.204Z,20.70
2023-04-08T01:59:19.256Z,20.83
2023-04-08T02:01:46.915Z,22.73
2023-04-08T02:04:13.528Z,21.30
2023-04-08T02:06:40.296Z,21.65
2023-04-08T02:09:07.756Z,22.03
2023-04-08T02:11:34.067Z,21.13
2023-04-08T02:14:00.370Z,23.60
2023-04-08T02:16:47.245Z,23.52
2023-04-08T02:19:29.204Z,20.92
2023-04-08T02:21:57.514Z,24.38
2023-04-08T02:24:24.449Z,22.35
2023-04-08T02:26:52.061Z,24.30
2023-04-08T02:29:19.045Z,22.02
2023-04-08T02:31:48.567Z,21.25
2023-04-08T02:34:16.227Z,22.02
2023-04-08T02:36:45.988Z,22.90
2023-04-08T02:39:12.800Z,22.05
2023-04-08T02:41:39.205Z,22.65
2023-04-08T02:44:05.721Z,24.70
2023-04-08T02:46:32.126Z,22.90
2023-04-08T02:48:58.484Z,22.63
2023-04-08T02:51:24.808Z,22.05
2023-04-08T02:53:51.168Z,24.63
2023-04-08T02:56:17.517Z,22.92
2023-04-08T02:58:43.856Z,23.55
2023-04-08T03:01:10.307Z,23.58
2023-04-08T03:03:36.962Z,22.80
2023-04-08T03:06:03.473Z,24.48
2023-04-08T03:08:29.795Z,22.88
2023-04-08T03:10:56.103Z,22.05
2023-04-08T03:13:22.441Z,24.30
2023-04-08T03:15:48.754Z,23.23
2023-04-08T03:18:15.519Z,23.58
2023-04-08T03:20:41.810Z,22.05
2023-04-08T03:23:08.332Z,24.10
2023-04-08T03:25:34.658Z,23.20
2023-04-08T03:28:00.966Z,22.13
2023-04-08T03:30:27.438Z,20.55
2023-04-08T03:32:53.884Z,20.95
2023-04-08T03:35:20.538Z,20.10
2023-04-08T03:37:47.179Z,18.83
2023-04-08T03:40:13.479Z,20.17
2023-04-08T03:42:39.854Z,19.15
2023-04-08T03:45:06.499Z,19.08
2023-04-08T03:47:32.840Z,18.50
2023-04-08T03:49:59.153Z,21.42
2023-04-08T03:52:25.575Z,20.05
2023-04-08T03:54:51.852Z,20.95
2023-04-08T03:57:18.183Z,17.38
2023-04-08T03:59:44.502Z,18.08
2023-04-08T04:02:10.994Z,19.48
2023-04-08T04:04:37.466Z,19.00
2023-04-08T04:07:03.820Z,17.83
2023-04-08T04:09:30.309Z,18.88
2023-04-08T04:11:56.649Z,20.02
2023-04-08T04:14:22.941Z,19.97
2023-04-08T04:16:49.230Z,21.17
2023-04-08T04:19:17.311Z,20.23
2023-04-08T04:21:43.797Z,19.85
2023-04-08T04:24:10.241Z,22.73
2023-04-08T04:26:36.535Z,22.73
2023-04-08T04:29:02.915Z,20.92
2023-04-08T04:31:29.519Z,22.10
2023-04-08T04:33:55.909Z,20.33
2023-04-08T04:36:22.281Z,20.67
2023-04-08T04:38:50.482Z,20.53
2023-04-08T04:41:17.274Z,22.15
2023-04-08T04:43:43.621Z,21.63
2023-04-08T04:46:09.947Z,22.55
2023-04-08T04:48:36.456Z,23.40
2023-04-08T04:51:03.400Z,22.00
2023-04-08T04:53:30.320Z,22.35
2023-04-08T04:55:56.613Z,21.58
2023-04-08T04:58:22.886Z,23.45
2023-04-08T05:00:49.194Z,22.90
2023-04-08T05:03:15.612Z,23.25
2023-04-08T05:05:41.978Z,21.85
2023-04-08T05:08:08.315Z,21.30
2023-04-08T05:10:34.638Z,23.33
2023-04-08T05:13:01.155Z,24.38
2023-04-08T05:15:27.453Z,24.20
2023-04-08T05:17:53.784Z,24.83
2023-04-08T05:20:20.307Z,23.52
2023-04-08T05:22:46.588Z,23.27
2023-04-08T05:25:12.950Z,22.73
2023-04-08T05:27:40.487Z,22.60
2023-04-08T05:30:07.330Z,23.45
2023-04-08T05:32:33.731Z,24.08
2023-04-08T05:35:02.029Z,24.93
2023-04-08T05:37:28.333Z,26.67
2023-04-08T05:39:54.636Z,22.77
2023-04-08T05:42:20.918Z,26.23
2023-04-08T05:44:47.329Z,24.25
2023-04-08T05:47:14.732Z,22.17
2023-04-08T05:49:41.109Z,21.23
2023-04-08T05:52:07.397Z,21.00
2023-04-08T05:54:33.679Z,22.97
2023-04-08T05:56:59.967Z,22.27
2023-04-08T05:59:26.257Z,21.60
2023-04-08T06:01:52.693Z,21.67
2023-04-08T06:04:19.248Z,21.43
2023-04-08T06:06:45.757Z,20.05
2023-04-08T06:09:12.051Z,22.02
2023-04-08T06:11:38.335Z,19.65
2023-04-08T06:14:04.634Z,19.58
2023-04-08T06:16:31.191Z,22.47
2023-04-08T06:18:57.493Z,21.87
2023-04-08T06:21:23.883Z,21.02
2023-04-08T06:23:50.163Z,21.08
2023-04-08T06:26:16.933Z,22.73
2023-04-08T06:28:43.302Z,22.80
2023-04-08T06:31:09.605Z,20.53
2023-04-08T06:33:35.892Z,22.52
2023-04-08T06:36:05.766Z,23.40
2023-04-08T06:38:32.123Z,22.88
2023-04-08T06:41:04.729Z,33.78
2023-04-08T06:43:31.237Z,29.20
2023-04-08T06:45:58.070Z,32.47
2023-04-08T06:48:28.531Z,33.77
2023-04-08T06:50:57.828Z,36.92
2023-04-08T06:53:24.925Z,30.40
2023-04-08T06:55:51.571Z,31.83
2023-04-08T06:58:18.112Z,30.87
2023-04-08T07:00:44.444Z,33.97
2023-04-08T07:03:11.960Z,31.83
2023-04-08T07:05:38.679Z,31.27
2023-04-08T07:08:05.604Z,33.13
2023-04-08T07:10:31.936Z,36.70
2023-04-08T07:12:58.247Z,29.20
2023-04-08T07:15:24.534Z,26.50
2023-04-08T07:17:51.689Z,29.80
2023-04-08T07:20:18.305Z,34.07
2023-04-08T07:22:44.620Z,29.40
2023-04-08T07:25:11.098Z,29.83
2023-04-08T07:27:37.411Z,33.10
2023-04-08T07:30:03.904Z,31.98
2023-04-08T07:32:30.278Z,26.60
2023-04-08T07:34:56.584Z,27.90
2023-04-08T07:37:22.921Z,29.17
2023-04-08T07:39:49.211Z,29.23
2023-04-08T07:42:15.511Z,28.47
2023-04-08T07:44:41.807Z,25.83
2023-04-08T07:47:09.112Z,29.87
2023-04-08T07:49:35.410Z,25.73
2023-04-08T07:52:01.850Z,25.93
2023-04-08T07:54:28.166Z,27.10
2023-04-08T07:56:54.563Z,26.73
2023-04-08T07:59:20.955Z,32.80
2023-04-08T08:01:47.382Z,32.40
2023-04-08T08:04:13.974Z,27.43
2023-04-08T08:06:40.459Z,28.60
2023-04-08T08:09:06.776Z,27.73
2023-04-08T08:11:33.337Z,26.93
2023-04-08T08:13:59.625Z,34.20
2023-04-08T08:16:29.334Z,33.33
2023-04-08T08:18:55.820Z,64.30
2023-04-08T08:21:22.595Z,42.57
2023-04-08T08:23:49.057Z,47.50
2023-04-08T08:26:15.831Z,50.57
2023-04-08T08:28:42.165Z,57.28
2023-04-08T08:31:08.598Z,29.40
2023-04-08T08:33:35.423Z,34.03
2023-04-08T08:36:01.818Z,30.03
2023-04-08T08:38:28.186Z,24.47
2023-04-08T08:40:56.232Z,27.30
2023-04-08T08:43:23.028Z,28.87
2023-04-08T08:45:49.367Z,31.07
2023-04-08T08:48:15.793Z,31.93
2023-04-08T08:50:42.100Z,26.30
2023-04-08T08:53:08.426Z,27.40
2023-04-08T08:55:53.092Z,26.35
2023-04-08T08:58:21.020Z,24.45
2023-04-08T09:00:47.395Z,25.77
2023-04-08T09:03:15.259Z,28.40
2023-04-08T09:05:51.835Z,25.97
2023-04-08T09:08:34.671Z,25.53
2023-04-08T09:11:11.682Z,25.70
2023-04-08T09:13:38.390Z,44.93
2023-04-08T09:16:05.692Z,56.07
2023-04-08T09:18:32.709Z,64.03
2023-04-08T09:21:05.313Z,59.85
2023-04-08T09:23:41.825Z,91.13
2023-04-08T09:26:11.019Z,80.10
2023-04-08T09:28:37.749Z,48.40
2023-04-08T09:31:18.952Z,47.28
2023-04-08T09:33:45.363Z,86.57
2023-04-08T09:36:11.899Z,66.22
2023-04-08T09:38:38.314Z,38.97
2023-04-08T09:41:06.965Z,79.20
2023-04-08T09:43:36.486Z,74.43
2023-04-08T09:46:06.026Z,98.75
2023-04-08T09:48:39.784Z,78.53
2023-04-08T09:51:06.517Z,68.43
2023-04-08T09:53:37.880Z,72.53
2023-04-08T09:56:07.638Z,94.47
2023-04-08T09:58:38.718Z,37.08
2023-04-08T10:01:05.499Z,68.47
2023-04-08T10:03:45.355Z,65.45
2023-04-08T10:06:12.046Z,81.47
2023-04-08T10:08:38.514Z,73.40
2023-04-08T10:11:04.913Z,58.28
2023-04-08T10:13:32.639Z,74.78
2023-04-08T10:16:18.008Z,81.20
2023-04-08T10:18:45.325Z,92.70
2023-04-08T10:21:31.118Z,82.38
2023-04-08T10:23:59.841Z,66.38
2023-04-08T10:26:36.462Z,76.72
2023-04-08T10:29:32.200Z,98.85
2023-04-08T10:31:58.816Z,103.85
2023-04-08T10:34:26.813Z,88.13
2023-04-08T10:36:54.331Z,79.13
2023-04-08T10:39:21.385Z,86.10
2023-04-08T10:41:48.938Z,74.25
2023-04-08T10:44:35.485Z,85.18
2023-04-08T10:47:01.872Z,72.22
2023-04-08T10:49:37.893Z,56.47
2023-04-08T10:52:07.787Z,77.07
2023-04-08T10:54:34.100Z,44.80
2023-04-08T10:57:01.398Z,29.90
2023-04-08T10:59:28.698Z,48.05
2023-04-08T11:01:55.442Z,51.08
2023-04-08T11:04:23.660Z,36.05
2023-04-08T11:06:50.187Z,42.17
2023-04-08T11:09:16.585Z,22.48
2023-04-08T11:11:44.076Z,24.48
2023-04-08T11:14:10.729Z,22.35
2023-04-08T11:16:37.780Z,22.98
2023-04-08T11:19:07.766Z,17.35
2023-04-08T11:21:37.486Z,22.55
2023-04-08T11:24:07.831Z,22.17
2023-04-08T11:26:34.465Z,21.33
2023-04-08T11:29:01.082Z,17.85
2023-04-08T11:31:27.763Z,21.25
2023-04-08T11:33:55.381Z,18.05
2023-04-08T11:36:21.903Z,21.63
2023-04-08T11:38:48.338Z,17.98
2023-04-08T11:41:14.859Z,17.48
2023-04-08T11:43:51.176Z,17.15
2023-04-08T11:46:17.701Z,19.35
2023-04-08T11:48:56.966Z,16.40
2023-04-08T11:51:23.912Z,17.85
2023-04-08T11:53:52.691Z,16.23
2023-04-08T11:56:22.457Z,16.35
2023-04-08T11:58:49.148Z,16.98
2023-04-08T12:01:15.911Z,18.40
2023-04-08T12:03:56.172Z,17.30
2023-04-08T12:06:23.417Z,16.50
2023-04-08T12:08:49.852Z,17.33
2023-04-08T12:11:19.935Z,14.55
2023-04-08T12:13:46.629Z,15.18
2023-04-08T12:16:14.216Z,15.07
2023-04-08T12:18:40.801Z,14.40
2023-04-08T12:21:07.121Z,14.20
2023-04-08T12:23:33.396Z,15.27
2023-04-08T12:25:59.709Z,14.52
2023-04-08T12:28:26.199Z,13.85
2023-04-08T12:30:52.576Z,15.57
2023-04-08T12:33:18.945Z,13.68
2023-04-08T12:35:45.354Z,15.77
2023-04-08T12:38:11.651Z,14.00
2023-04-08T12:40:38.230Z,12.07
2023-04-08T12:43:04.518Z,14.25
2023-04-08T12:45:30.870Z,13.27
2023-04-08T12:47:57.283Z,12.85
2023-04-08T12:50:23.627Z,12.50
2023-04-08T12:52:50.040Z,13.02
2023-04-08T12:55:16.345Z,11.77
2023-04-08T12:57:42.712Z,12.38
2023-04-08T13:00:09.450Z,12.57
2023-04-08T13:02:35.874Z,13.73
2023-04-08T13:05:02.462Z,13.40
2023-04-08T13:07:28.765Z,13.27
2023-04-08T13:09:55.312Z,12.80
2023-04-08T13:12:21.600Z,13.05
2023-04-08T13:14:47.906Z,14.30
2023-04-08T13:17:14.197Z,13.70
2023-04-08T13:19:40.567Z,13.60
2023-04-08T13:22:06.986Z,12.73
2023-04-08T13:24:33.649Z,13.10
2023-04-08T13:26:59.956Z,12.35
2023-04-08T13:29:26.258Z,12.68
2023-04-08T13:31:53.453Z,14.32
2023-04-08T13:34:19.886Z,13.75
2023-04-08T13:36:46.185Z,14.02
2023-04-08T13:39:12.815Z,14.18
2023-04-08T13:41:39.104Z,13.43
2023-04-08T13:44:05.680Z,13.85
2023-04-08T13:46:32.032Z,14.10
2023-04-08T13:48:58.377Z,13.63
2023-04-08T13:51:24.742Z,13.75
2023-04-08T13:53:51.164Z,12.40
2023-04-08T13:56:17.445Z,12.93
2023-04-08T13:58:44.790Z,12.70
2023-04-08T14:01:14.033Z,13.52
2023-04-08T14:03:40.817Z,12.63
2023-04-08T14:06:07.143Z,10.80
2023-04-08T14:08:33.461Z,12.15
2023-04-08T14:10:59.880Z,10.73
2023-04-08T14:13:26.470Z,11.48
2023-04-08T14:15:56.158Z,11.55
2023-04-08T14:18:22.441Z,11.23
2023-04-08T14:20:48.727Z,9.98
2023-04-08T14:23:16.826Z,11.50
2023-04-08T14:25:43.128Z,11.68
2023-04-08T14:28:09.428Z,10.93
2023-04-08T14:30:37.757Z,10.07
2023-04-08T14:33:05.308Z,10.27
2023-04-08T14:35:31.785Z,9.05
2023-04-08T14:37:58.404Z,9.05
2023-04-08T14:40:24.692Z,9.10
2023-04-08T14:42:51.536Z,9.75
2023-04-08T14:45:17.835Z,8.13
2023-04-08T14:47:44.167Z,7.82
2023-04-08T14:50:10.752Z,8.98
2023-04-08T14:52:37.052Z,8.75
2023-04-08T14:55:03.487Z,9.07
2023-04-08T14:57:29.807Z,8.90
2023-04-08T14:59:56.454Z,8.23
2023-04-08T15:02:22.823Z,7.80
2023-04-08T15:04:49.151Z,7.45
2023-04-08T15:07:15.748Z,8.40
2023-04-08T15:09:42.568Z,7.57
2023-04-08T15:12:08.872Z,9.27
2023-04-08T15:14:35.205Z,9.20
2023-04-08T15:17:01.501Z,8.27
2023-04-08T15:19:27.793Z,8.68
2023-04-08T15:21:54.092Z,9.40
2023-04-08T15:24:20.605Z,8.63
2023-04-08T15:26:46.903Z,9.10
2023-04-08T15:29:13.409Z,8.95
2023-04-08T15:31:41.389Z,8.90
2023-04-08T15:34:07.749Z,9.05
2023-04-08T15:36:35.952Z,9.75
2023-04-08T15:39:02.348Z,8.05
2023-04-08T15:41:28.772Z,9.20
2023-04-08T15:43:55.643Z,9.45
2023-04-08T15:46:21.975Z,8.68
2023-04-08T15:48:48.601Z,9.15
2023-04-08T15:51:15.420Z,8.68
2023-04-08T15:53:41.991Z,7.95
2023-04-08T15:56:18.015Z,9.00
2023-04-08T15:58:45.090Z,8.82
2023-04-08T16:01:12.265Z,7.95
2023-04-08T16:03:39.081Z,9.23
2023-04-08T16:06:08.468Z,7.80
2023-04-08T16:08:34.962Z,9.18
2023-04-08T16:11:02.553Z,9.52
2023-04-08T16:13:31.981Z,10.52
2023-04-08T16:15:58.774Z,7.75
2023-04-08T16:18:25.898Z,9.32
2023-04-08T16:20:52.773Z,9.15
2023-04-08T16:23:19.094Z,8.63
2023-04-08T16:25:45.474Z,9.27
2023-04-08T16:28:12.101Z,8.90
2023-04-08T16:30:38.796Z,9.27
2023-04-08T16:33:06.039Z,8.30
2023-04-08T16:35:32.539Z,8.82
2023-04-08T16:37:58.907Z,8.18
2023-04-08T16:40:25.419Z,9.15
2023-04-08T16:42:52.265Z,8.15
2023-04-08T16:45:18.871Z,9.10
2023-04-08T16:47:45.936Z,9.15
2023-04-08T16:50:12.308Z,7.70
2023-04-08T16:52:38.699Z,8.93
2023-04-08T16:55:05.191Z,8.10
2023-04-08T16:57:31.486Z,9.02
2023-04-08T16:59:57.854Z,8.70
2023-04-08T17:02:24.335Z,8.45
2023-04-08T17:04:51.387Z,9.35
2023-04-08T17:07:17.700Z,10.30
2023-04-08T17:09:44.367Z,8.38
2023-04-08T17:12:10.934Z,9.32
2023-04-08T17:14:37.240Z,8.88
2023-04-08T17:17:03.530Z,9.82
2023-04-08T17:19:29.845Z,8.18
2023-04-08T17:21:56.549Z,7.45
2023-04-08T17:24:22.867Z,7.95
2023-04-08T17:26:49.341Z,7.95
2023-04-08T17:29:15.634Z,9.57
2023-04-08T17:31:42.102Z,9.82
2023-04-08T17:34:08.464Z,7.70
2023-04-08T17:36:34.752Z,9.60
2023-04-08T17:39:01.286Z,9.77
2023-04-08T17:41:38.840Z,10.20
2023-04-08T17:44:06.058Z,9.52
2023-04-08T17:48:59.208Z,8.80
2023-04-08T17:51:26.217Z,8.15
2023-04-08T17:53:52.785Z,9.25
2023-04-08T17:56:19.313Z,10.55
2023-04-08T17:58:48.150Z,10.30
2023-04-08T18:01:15.322Z,10.35
2023-04-08T18:03:42.263Z,9.68
2023-04-08T18:06:09.043Z,12.05
2023-04-08T18:08:35.742Z,9.95
2023-04-08T18:11:05.734Z,9.65
2023-04-08T18:13:32.188Z,11.25
2023-04-08T18:15:58.624Z,12.98
2023-04-08T18:18:25.034Z,12.35
2023-04-08T18:20:51.393Z,11.23
2023-04-08T18:23:17.740Z,12.63
2023-04-08T18:25:47.241Z,13.95
2023-04-08T18:28:13.525Z,14.57
2023-04-08T18:30:39.905Z,12.82
2023-04-08T18:33:06.723Z,14.30
2023-04-08T18:35:33.068Z,17.42
2023-04-08T18:37:59.396Z,20.95
2023-04-08T18:40:25.699Z,21.92
2023-04-08T18:42:51.985Z,9.88
2023-04-08T18:45:18.564Z,8.70
2023-04-08T18:47:44.956Z,8.45
2023-04-08T18:50:11.284Z,8.63
2023-04-08T18:52:38.835Z,9.65
2023-04-08T18:55:05.401Z,9.73
2023-04-08T18:57:31.697Z,9.30
2023-04-08T18:59:58.042Z,8.13
2023-04-08T19:02:24.538Z,10.25
2023-04-08T19:04:51.998Z,7.85
2023-04-08T19:07:18.398Z,9.05
2023-04-08T19:09:44.720Z,9.57
2023-04-08T19:12:11.099Z,8.38
2023-04-08T19:14:37.419Z,9.98
2023-04-08T19:17:03.803Z,8.68
2023-04-08T19:19:30.151Z,8.68
2023-04-08T19:21:56.458Z,8.82
2023-04-08T19:24:22.828Z,9.20
2023-04-08T19:26:50.704Z,8.55
2023-04-08T19:29:19.436Z,8.90
2023-04-08T19:31:45.925Z,9.77
2023-04-08T19:34:12.496Z,9.48
2023-04-08T19:36:38.775Z,9.70
2023-04-08T19:39:05.854Z,9.07
2023-04-08T19:41:32.165Z,9.77
2023-04-08T19:43:58.452Z,9.48
2023-04-08T19:46:24.796Z,9.55
2023-04-08T19:48:51.273Z,10.27
2023-04-08T19:51:20.207Z,9.82
2023-04-08T19:53:46.888Z,9.32
2023-04-08T19:56:13.536Z,9.65
2023-04-08T19:58:39.842Z,9.52
2023-04-08T20:01:07.366Z,8.68
2023-04-08T20:03:33.854Z,9.75
2023-04-08T20:06:00.860Z,9.45
2023-04-08T20:08:27.196Z,9.60
2023-04-08T20:10:53.949Z,8.02
2023-04-08T20:13:20.698Z,9.88
2023-04-08T20:15:47.017Z,8.23
2023-04-08T20:18:15.284Z,8.48
2023-04-08T20:20:42.915Z,10.00
2023-04-08T20:23:09.234Z,8.43
2023-04-08T20:25:35.652Z,9.10
2023-04-08T20:28:01.979Z,8.40
2023-04-08T20:30:28.531Z,9.43
2023-04-08T20:32:54.869Z,8.70
2023-04-08T20:35:22.085Z,9.77
2023-04-08T20:37:48.541Z,9.60
2023-04-08T20:40:17.670Z,8.80
2023-04-08T20:42:44.582Z,11.05
2023-04-08T20:45:11.722Z,11.80
2023-04-08T20:47:38.585Z,10.70
2023-04-08T20:50:05.526Z,12.98
2023-04-08T20:52:31.884Z,13.77
2023-04-08T20:54:58.324Z,12.27
2023-04-08T20:57:24.670Z,13.13
2023-04-08T20:59:51.287Z,13.10
2023-04-08T21:02:18.096Z,13.65
2023-04-08T21:04:44.479Z,12.05
2023-04-08T21:07:10.808Z,13.98
2023-04-08T21:09:37.093Z,14.25
2023-04-08T21:12:04.276Z,13.70
2023-04-08T21:14:34.738Z,14.48
2023-04-08T21:17:01.081Z,14.65
2023-04-08T21:19:27.411Z,16.77
2023-04-08T21:21:53.727Z,15.98
2023-04-08T21:24:20.023Z,16.73
2023-04-08T21:26:46.673Z,16.55
2023-04-08T21:29:12.954Z,18.60
2023-04-08T21:31:41.020Z,16.90
2023-04-08T21:34:07.646Z,17.83
2023-04-08T21:36:33.946Z,17.05
2023-04-08T21:39:00.458Z,18.85
2023-04-08T21:41:28.989Z,15.98
2023-04-08T21:43:57.114Z,18.00
2023-04-08T21:46:23.604Z,19.48
2023-04-08T21:48:50.249Z,21.33
2023-04-08T21:51:17.258Z,21.80
2023-04-08T21:53:43.839Z,19.13
2023-04-08T21:56:10.505Z,20.60
2023-04-08T21:58:36.822Z,21.20
2023-04-08T22:01:04.164Z,22.15
2023-04-08T22:03:30.503Z,19.70
2023-04-08T22:05:56.830Z,22.83
2023-04-08T22:08:23.145Z,25.20
2023-04-08T22:10:49.437Z,26.10
2023-04-08T22:13:18.696Z,22.95
2023-04-08T22:15:44.993Z,19.25
2023-04-08T22:18:11.725Z,23.70
2023-04-08T22:20:38.507Z,20.23
2023-04-08T22:23:04.868Z,23.38
2023-04-08T22:25:31.147Z,22.42
2023-04-08T22:27:57.563Z,26.48
2023-04-08T22:30:23.844Z,22.17
2023-04-08T22:32:50.589Z,19.50
2023-04-08T22:35:16.973Z,18.88
2023-04-08T22:37:43.272Z,18.65
2023-04-08T22:40:09.712Z,16.42
2023-04-08T22:42:36.058Z,16.65
2023-04-08T22:45:02.362Z,20.35
2023-04-08T22:47:28.683Z,20.10
2023-04-08T22:49:55.400Z,18.35
2023-04-08T22:52:21.715Z,18.30
2023-04-08T22:54:48.031Z,16.25
2023-04-08T22:57:14.350Z,18.55
2023-04-08T22:59:40.653Z,18.88
2023-04-08T23:02:07.041Z,20.48
2023-04-08T23:04:33.395Z,16.95
2023-04-08T23:06:59.722Z,30.88
2023-04-08T23:09:27.116Z,21.40
2023-04-08T23:11:53.409Z,20.50
2023-04-08T23:14:19.682Z,22.27
2023-04-08T23:16:45.975Z,18.45
2023-04-08T23:19:12.394Z,23.52
2023-04-08T23:21:38.730Z,16.00
2023-04-08T23:24:05.368Z,16.88
2023-04-08T23:26:31.663Z,20.95
2023-04-08T23:28:58.168Z,20.70
2023-04-08T23:31:24.552Z,22.42
2023-04-08T23:33:50.898Z,20.85
2023-04-08T23:36:17.233Z,21.42
2023-04-08T23:38:43.532Z,22.30
2023-04-08T23:41:09.816Z,22.20
2023-04-08T23:43:36.603Z,22.05
2023-04-08T23:46:03.022Z,20.13
2023-04-08T23:48:29.357Z,20.52
2023-04-08T23:50:55.921Z,23.90
2023-04-08T23:53:22.257Z,21.80
2023-04-08T23:55:48.614Z,23.27
2023-04-08T23:58:14.912Z,23.25
